INFORMACIÓN METAR y TAF
METAR FOR LEDA
ADDS - METARS form results

(0037 UTC 12 September 2022)
Data provider http://aviationweather.gov/metar/data/
 
METAR text: LEDA 120030Z AUTO 06013KT CAVOK 23/18 Q1014
Conditions at: LEDA (LLEIDA-ALGUAIRE , ES) observed 0030 UTC 12 September 2022
Temperature: 23.0°C (73°F)
Dewpoint: 18.0°C (64°F) [RH = 73%]
Pressure (altimeter): 29.94 inches Hg (1014.0 mb)
Winds: from the ENE (60 degrees) at 15 MPH (13 knots; 6.7 m/s)
Visibility: 6 or more miles (10+ km)
Ceiling: ceiling and visibility are OK
Clouds: unknown
Weather: no significant weather observed at this time

METAR text: LEDA 120000Z AUTO 07011KT CAVOK 23/18 Q1015
Conditions at: LEDA (LLEIDA-ALGUAIRE , ES) observed 0000 UTC 12 September 2022
Temperature: 23.0°C (73°F)
Dewpoint: 18.0°C (64°F) [RH = 73%]
Pressure (altimeter): 29.97 inches Hg (1015.0 mb)
Winds: from the ENE (70 degrees) at 13 MPH (11 knots; 5.7 m/s)
Visibility: 6 or more miles (10+ km)
Ceiling: ceiling and visibility are OK
Clouds: unknown
Weather: no significant weather observed at this time

 MAPA DE AEROPUERTO

 INFORMACIÓN DE PISTA

 FRECUANCIAS DEL AEROPUERTO

 RADIO AYUDAS DEL AEROPUERTO



Powered by Virtual Airlines Manager [v2.6.2]